createdAt,value
2019-05-15T00:01:20.293Z,8.50
2019-05-15T00:03:49.955Z,8.50
2019-05-15T00:06:19.516Z,8.50
2019-05-15T00:08:49.170Z,8.50
2019-05-15T00:11:19.221Z,8.40
2019-05-15T00:13:49.102Z,8.40
2019-05-15T00:16:18.658Z,8.40
2019-05-15T00:18:48.418Z,8.40
2019-05-15T00:21:38.286Z,8.40
2019-05-15T00:24:12.982Z,8.30
2019-05-15T00:26:39.404Z,8.30
2019-05-15T00:29:15.636Z,8.30
2019-05-15T00:31:40.347Z,8.30
2019-05-15T00:34:12.869Z,8.30
2019-05-15T00:36:41.257Z,8.30
2019-05-15T00:39:10.886Z,8.20
2019-05-15T00:41:50.364Z,8.20
2019-05-15T00:44:30.744Z,8.20
2019-05-15T00:47:00.324Z,8.20
2019-05-15T00:49:29.931Z,8.10
2019-05-15T00:51:59.554Z,8.10
2019-05-15T00:54:29.150Z,8.10
2019-05-15T00:56:58.732Z,8.00
2019-05-15T00:59:30.038Z,8.10
2019-05-15T01:01:59.576Z,8.00
2019-05-15T01:04:29.159Z,8.00
2019-05-15T01:06:58.988Z,8.00
2019-05-15T01:09:29.209Z,8.00
2019-05-15T01:11:59.044Z,8.00
2019-05-15T01:14:28.597Z,8.00
2019-05-15T01:16:58.312Z,8.00
2019-05-15T01:19:28.761Z,8.10
2019-05-15T01:21:58.799Z,8.00
2019-05-15T01:24:28.460Z,8.00
2019-05-15T01:26:58.484Z,8.00
2019-05-15T01:29:40.994Z,7.90
2019-05-15T01:31:59.458Z,7.90
2019-05-15T01:34:29.490Z,7.80
2019-05-15T01:36:59.285Z,7.90
2019-05-15T01:39:29.147Z,7.80
2019-05-15T01:41:58.941Z,7.80
2019-05-15T01:44:29.397Z,7.80
2019-05-15T01:46:59.168Z,7.80
2019-05-15T01:49:28.699Z,7.80
2019-05-15T01:52:18.768Z,7.80
2019-05-15T01:54:48.841Z,7.80
2019-05-15T01:57:19.034Z,7.70
2019-05-15T01:59:57.317Z,7.70
2019-05-15T02:02:19.807Z,7.70
2019-05-15T02:04:49.404Z,7.70
2019-05-15T02:07:18.984Z,7.70
2019-05-15T02:09:49.172Z,7.60
2019-05-15T02:12:19.209Z,7.70
2019-05-15T02:14:48.834Z,7.60
2019-05-15T02:17:18.948Z,7.60
2019-05-15T02:19:48.763Z,7.60
2019-05-15T02:22:18.948Z,7.50
2019-05-15T02:24:48.759Z,7.50
2019-05-15T02:27:18.796Z,7.50
2019-05-15T02:29:49.293Z,7.50
2019-05-15T02:32:19.428Z,7.40
2019-05-15T02:34:50.112Z,7.40
2019-05-15T02:37:19.989Z,7.40
2019-05-15T02:39:49.782Z,7.30
2019-05-15T02:42:19.495Z,7.40
2019-05-15T02:44:50.205Z,7.30
2019-05-15T02:47:20.282Z,7.30
2019-05-15T02:49:49.930Z,7.30
2019-05-15T02:52:20.080Z,7.30
2019-05-15T02:54:50.090Z,7.30
2019-05-15T02:57:19.729Z,7.30
2019-05-15T02:59:49.873Z,7.30
2019-05-15T03:02:19.698Z,7.30
2019-05-15T03:04:49.373Z,7.30
2019-05-15T03:07:19.421Z,7.30
2019-05-15T03:09:49.622Z,7.40
2019-05-15T03:12:19.905Z,7.40
2019-05-15T03:14:50.000Z,7.40
2019-05-15T03:17:19.749Z,7.50
2019-05-15T03:20:10.395Z,7.50
2019-05-15T03:22:40.629Z,7.60
2019-05-15T03:25:11.224Z,7.60
2019-05-15T03:27:41.363Z,7.60
2019-05-15T03:30:14.353Z,7.60
2019-05-15T03:32:52.461Z,7.60
2019-05-15T03:35:15.409Z,7.60
2019-05-15T03:37:44.921Z,7.70
2019-05-15T03:40:14.695Z,7.70
2019-05-15T03:42:44.299Z,7.70
2019-05-15T03:45:14.178Z,7.80
2019-05-15T03:47:43.759Z,7.80
2019-05-15T03:50:13.448Z,7.80
2019-05-15T03:52:43.114Z,7.80
2019-05-15T03:55:12.938Z,7.80
2019-05-15T03:57:42.540Z,7.80
2019-05-15T04:00:12.385Z,7.80
2019-05-15T04:02:41.949Z,7.80
2019-05-15T04:05:12.404Z,7.70
2019-05-15T04:07:42.220Z,7.70
2019-05-15T04:10:30.893Z,7.70
2019-05-15T04:13:11.822Z,7.70
2019-05-15T04:15:41.436Z,7.70
2019-05-15T04:18:11.008Z,7.70
2019-05-15T04:20:41.060Z,7.80
2019-05-15T04:23:10.923Z,7.80
2019-05-15T04:25:41.629Z,7.80
2019-05-15T04:28:13.467Z,7.80
2019-05-15T04:30:43.022Z,7.80
2019-05-15T04:33:12.640Z,7.80
2019-05-15T04:35:42.200Z,7.80
2019-05-15T04:38:11.763Z,7.80
2019-05-15T04:40:41.341Z,7.90
2019-05-15T04:43:11.317Z,8.00
2019-05-15T04:45:40.956Z,8.00
2019-05-15T04:48:10.741Z,8.00
2019-05-15T04:50:40.569Z,8.10
2019-05-15T04:53:11.030Z,8.10
2019-05-15T04:55:41.013Z,8.20
2019-05-15T04:58:10.916Z,8.20
2019-05-15T05:00:51.556Z,8.30
2019-05-15T05:03:21.445Z,8.30
2019-05-15T05:05:51.376Z,8.40
2019-05-15T05:08:21.278Z,8.40
2019-05-15T05:10:51.233Z,8.40
2019-05-15T05:13:20.811Z,8.40
2019-05-15T05:15:50.752Z,8.40
2019-05-15T05:18:20.531Z,8.40
2019-05-15T05:20:50.091Z,8.40
2019-05-15T05:23:19.701Z,8.40
2019-05-15T05:25:49.595Z,8.50
2019-05-15T05:28:38.320Z,8.50
2019-05-15T05:31:08.347Z,8.50
2019-05-15T05:33:38.369Z,8.60
2019-05-15T05:36:08.114Z,8.60
2019-05-15T05:38:38.682Z,8.60
2019-05-15T05:41:08.913Z,8.60
2019-05-15T05:43:38.703Z,8.70
2019-05-15T05:46:10.615Z,8.70
2019-05-15T05:48:40.318Z,8.80
2019-05-15T05:51:09.973Z,8.80
2019-05-15T05:53:39.734Z,8.80
2019-05-15T05:56:09.525Z,8.80
2019-05-15T05:58:39.287Z,8.90
2019-05-15T06:01:28.342Z,8.90
2019-05-15T06:03:58.399Z,8.90
2019-05-15T06:06:29.232Z,8.90
2019-05-15T06:08:58.980Z,9.00
2019-05-15T06:11:28.628Z,9.00
2019-05-15T06:13:58.548Z,9.00
2019-05-15T06:16:28.484Z,9.00
2019-05-15T06:18:58.733Z,9.00
2019-05-15T06:21:28.621Z,9.10
2019-05-15T06:24:04.546Z,9.10
2019-05-15T06:26:29.613Z,9.10
2019-05-15T06:28:59.211Z,9.10
2019-05-15T06:31:28.795Z,9.10
2019-05-15T06:33:58.488Z,9.10
2019-05-15T06:36:28.862Z,9.10
2019-05-15T06:38:59.169Z,9.10
2019-05-15T06:41:28.855Z,9.10
2019-05-15T06:43:58.907Z,9.10
2019-05-15T06:46:28.670Z,9.20
2019-05-15T06:49:18.004Z,9.20
2019-05-15T06:51:48.701Z,9.20
2019-05-15T06:54:19.015Z,9.30
2019-05-15T06:57:09.151Z,9.30
2019-05-15T06:59:39.093Z,9.40
2019-05-15T07:02:10.199Z,9.40
2019-05-15T07:04:39.844Z,9.40
2019-05-15T07:07:11.250Z,9.50
2019-05-15T07:09:40.643Z,9.60
2019-05-15T07:12:12.567Z,9.60
2019-05-15T07:14:42.184Z,9.60
2019-05-15T07:17:11.778Z,9.70
2019-05-15T07:19:41.419Z,9.70
2019-05-15T07:22:10.988Z,9.70
2019-05-15T07:24:40.554Z,9.70
2019-05-15T07:27:12.316Z,9.80
2019-05-15T07:29:41.976Z,9.80
2019-05-15T07:32:11.779Z,9.80
2019-05-15T07:34:41.371Z,9.90
2019-05-15T07:37:10.954Z,9.90
2019-05-15T07:39:40.601Z,10.00
2019-05-15T07:42:10.235Z,10.00
2019-05-15T07:44:39.842Z,10.10
2019-05-15T07:47:09.491Z,10.20
2019-05-15T07:49:39.091Z,10.30
2019-05-15T07:52:08.813Z,10.40
2019-05-15T07:54:38.527Z,10.50
2019-05-15T07:57:08.956Z,10.50
2019-05-15T07:59:39.386Z,10.60
2019-05-15T08:02:09.004Z,10.70
2019-05-15T08:04:39.620Z,10.70
2019-05-15T08:07:09.303Z,10.80
2019-05-15T08:09:39.213Z,10.90
2019-05-15T08:12:09.026Z,10.90
2019-05-15T08:14:38.946Z,10.90
2019-05-15T08:17:08.827Z,11.00
2019-05-15T08:19:38.626Z,11.00
2019-05-15T08:22:11.247Z,11.10
2019-05-15T08:24:40.942Z,11.10
2019-05-15T08:27:10.580Z,11.10
2019-05-15T08:29:40.243Z,11.20
2019-05-15T08:32:09.885Z,11.10
2019-05-15T08:34:40.870Z,11.10
2019-05-15T08:37:10.511Z,11.10
2019-05-15T08:39:40.111Z,11.10
2019-05-15T08:42:09.709Z,11.10
2019-05-15T08:44:58.444Z,11.10
2019-05-15T08:47:29.757Z,11.10
2019-05-15T08:49:59.571Z,11.10
2019-05-15T08:52:29.178Z,11.20
2019-05-15T08:54:59.257Z,11.20
2019-05-15T08:57:29.078Z,11.20
2019-05-15T08:59:58.721Z,11.20
2019-05-15T09:02:28.758Z,11.10
2019-05-15T09:04:59.862Z,11.10
2019-05-15T09:07:29.473Z,11.10
2019-05-15T09:09:59.098Z,11.10
2019-05-15T09:12:29.442Z,11.00
2019-05-15T09:14:59.226Z,11.10
2019-05-15T09:17:28.844Z,11.20
2019-05-15T09:19:58.906Z,11.20
2019-05-15T09:22:29.187Z,11.20
2019-05-15T09:24:59.098Z,11.30
2019-05-15T09:27:28.780Z,11.30
2019-05-15T09:29:59.209Z,11.30
2019-05-15T09:32:48.515Z,11.30
2019-05-15T09:35:27.711Z,11.30
2019-05-15T09:38:18.169Z,11.40
2019-05-15T09:40:50.368Z,11.40
2019-05-15T09:43:18.541Z,11.40
2019-05-15T09:45:49.414Z,11.40
2019-05-15T09:48:20.408Z,11.40
2019-05-15T09:50:50.046Z,11.50
2019-05-15T09:53:19.704Z,11.60
2019-05-15T09:55:49.954Z,11.70
2019-05-15T09:58:20.980Z,11.80
2019-05-15T10:00:53.463Z,11.90
2019-05-15T10:03:44.623Z,12.00
2019-05-15T10:06:14.416Z,12.00
2019-05-15T10:08:49.052Z,12.00
2019-05-15T10:11:20.172Z,12.00
2019-05-15T10:13:49.833Z,12.10
2019-05-15T10:16:20.047Z,12.10
2019-05-15T10:18:50.777Z,12.20
2019-05-15T10:21:21.050Z,12.30
2019-05-15T10:23:50.652Z,12.30
2019-05-15T10:26:20.333Z,12.20
2019-05-15T10:28:49.953Z,12.20
2019-05-15T10:31:19.846Z,12.20
2019-05-15T10:33:49.890Z,12.30
2019-05-15T10:36:19.572Z,12.40
2019-05-15T10:38:49.282Z,12.50
2019-05-15T10:41:19.103Z,12.60
2019-05-15T10:43:56.013Z,12.60
2019-05-15T10:46:20.065Z,12.60
2019-05-15T10:48:49.760Z,12.60
2019-05-15T10:51:19.850Z,12.80
2019-05-15T10:53:49.547Z,12.80
2019-05-15T10:56:19.282Z,12.80
2019-05-15T10:58:50.666Z,12.90
2019-05-15T11:01:20.179Z,12.90
2019-05-15T11:03:49.933Z,12.90
2019-05-15T11:06:19.608Z,13.00
2019-05-15T11:08:51.619Z,13.00
2019-05-15T11:11:20.564Z,13.10
2019-05-15T11:13:50.205Z,13.10
2019-05-15T11:16:21.226Z,13.10
2019-05-15T11:18:53.523Z,13.20
2019-05-15T11:21:22.486Z,13.20
2019-05-15T11:23:52.107Z,13.20
2019-05-15T11:26:21.832Z,13.30
2019-05-15T11:28:51.636Z,13.30
2019-05-15T11:31:24.607Z,13.30
2019-05-15T11:33:52.555Z,13.30
2019-05-15T11:36:43.581Z,13.30
2019-05-15T11:39:18.076Z,13.30
2019-05-15T11:41:45.689Z,13.30
2019-05-15T11:44:15.288Z,13.30
2019-05-15T11:46:44.870Z,13.30
2019-05-15T11:49:14.535Z,13.30
2019-05-15T11:51:44.146Z,13.30
2019-05-15T11:54:13.734Z,13.40
2019-05-15T11:56:43.366Z,13.40
2019-05-15T11:59:13.008Z,13.40
2019-05-15T12:01:42.606Z,13.40
2019-05-15T12:04:26.737Z,13.40
2019-05-15T12:06:56.983Z,13.50
2019-05-15T12:09:14.699Z,13.50
2019-05-15T12:11:44.353Z,13.60
2019-05-15T12:14:13.961Z,13.70
2019-05-15T12:17:01.185Z,13.90
2019-05-15T12:19:17.393Z,14.00
2019-05-15T12:21:50.428Z,14.10
2019-05-15T12:24:17.464Z,14.20
2019-05-15T12:26:48.907Z,14.30
2019-05-15T12:29:18.338Z,14.30
2019-05-15T12:31:49.562Z,14.40
2019-05-15T12:34:19.429Z,14.40
2019-05-15T12:36:56.663Z,14.50
2019-05-15T12:39:22.166Z,14.50
2019-05-15T13:02:01.808Z,14.40
2019-05-15T13:04:31.420Z,14.50
2019-05-15T13:07:12.907Z,14.50
2019-05-15T13:09:32.456Z,14.70
2019-05-15T13:12:02.012Z,14.90
2019-05-15T13:14:31.660Z,15.00
2019-05-15T13:17:01.336Z,15.20
2019-05-15T13:19:31.491Z,15.20
2019-05-15T13:22:01.111Z,15.30
2019-05-15T13:24:30.796Z,15.30
2019-05-15T13:27:00.473Z,15.30
2019-05-15T13:29:30.104Z,15.30
2019-05-15T13:32:18.762Z,15.30
2019-05-15T13:34:48.970Z,15.50
2019-05-15T13:37:26.733Z,15.70
2019-05-15T13:39:50.031Z,15.90
2019-05-15T13:42:19.662Z,15.90
2019-05-15T13:44:49.246Z,16.00
2019-05-15T13:47:18.931Z,15.90
2019-05-15T13:49:48.481Z,15.80
2019-05-15T13:52:18.816Z,15.90
2019-05-15T13:54:48.644Z,15.90
2019-05-15T13:57:18.251Z,15.90
2019-05-15T13:59:48.389Z,15.90
2019-05-15T14:02:18.695Z,15.70
2019-05-15T14:04:49.053Z,15.40
2019-05-15T14:07:19.364Z,15.30
2019-05-15T14:09:49.329Z,15.10
2019-05-15T14:12:19.246Z,15.00
2019-05-15T14:14:49.162Z,14.90
2019-05-15T14:17:20.203Z,14.70
2019-05-15T14:19:49.936Z,14.60
2019-05-15T14:22:21.736Z,14.40
2019-05-15T14:24:58.856Z,14.20
2019-05-15T14:27:28.744Z,14.10
2019-05-15T14:29:58.589Z,14.00
2019-05-15T14:32:38.346Z,13.90
2019-05-15T14:35:02.412Z,14.00
2019-05-15T14:37:32.273Z,14.00
2019-05-15T14:40:03.310Z,14.00
2019-05-15T14:42:33.303Z,14.00
2019-05-15T14:45:08.618Z,14.00
2019-05-15T14:47:39.515Z,13.90
2019-05-15T14:50:32.017Z,13.90
2019-05-15T14:53:02.901Z,13.80
2019-05-15T14:55:34.334Z,13.70
2019-05-15T14:58:04.258Z,13.60
2019-05-15T15:00:35.093Z,13.50
2019-05-15T15:03:05.465Z,13.50
2019-05-15T15:05:35.200Z,13.40
2019-05-15T15:08:17.354Z,13.30
2019-05-15T15:10:38.240Z,13.20
2019-05-15T15:13:09.233Z,13.10
2019-05-15T15:15:41.837Z,13.00
2019-05-15T15:18:10.552Z,12.80
2019-05-15T15:20:40.274Z,12.60
2019-05-15T15:23:12.924Z,12.50
2019-05-15T15:25:42.567Z,12.40
2019-05-15T15:28:12.275Z,12.30
2019-05-15T15:30:42.413Z,12.20
2019-05-15T15:33:12.129Z,12.10
2019-05-15T15:35:41.845Z,12.10
2019-05-15T15:38:13.442Z,12.00
2019-05-15T15:40:42.969Z,11.90
2019-05-15T15:43:17.417Z,11.90
2019-05-15T15:45:48.447Z,11.80
2019-05-15T15:48:19.302Z,11.60
2019-05-15T15:50:49.127Z,11.50
2019-05-15T15:53:19.183Z,11.40
2019-05-15T15:55:50.555Z,11.30
2019-05-15T15:58:20.621Z,11.20
2019-05-15T16:00:50.222Z,11.20
2019-05-15T16:03:19.897Z,11.20
2019-05-15T16:05:49.551Z,11.10
2019-05-15T16:08:19.210Z,11.10
2019-05-15T16:10:48.844Z,11.00
2019-05-15T16:13:20.683Z,10.90
2019-05-15T16:15:52.007Z,10.80
2019-05-15T16:18:21.705Z,10.70
2019-05-15T16:20:58.065Z,10.50
2019-05-15T16:23:49.281Z,10.40
2019-05-15T16:26:15.303Z,10.40
2019-05-15T16:28:44.991Z,10.30
2019-05-15T16:31:34.021Z,10.20
2019-05-15T16:34:11.655Z,10.20
2019-05-15T16:36:41.410Z,10.10
2019-05-15T16:39:45.631Z,10.10
2019-05-15T16:42:22.538Z,10.00
2019-05-15T16:45:20.001Z,9.90
2019-05-15T16:47:55.527Z,9.90
2019-05-15T16:50:25.360Z,9.90
2019-05-15T16:52:58.435Z,9.90
2019-05-15T16:55:31.067Z,9.80
2019-05-15T16:58:04.431Z,9.80
2019-05-15T17:00:34.291Z,9.80
2019-05-15T17:03:10.107Z,9.80
2019-05-15T17:05:58.758Z,9.80
2019-05-15T17:08:33.638Z,9.80
2019-05-15T17:11:03.498Z,9.80
2019-05-15T17:13:35.698Z,9.80
2019-05-15T17:16:18.746Z,9.80
2019-05-15T17:18:50.457Z,9.70
2019-05-15T17:21:39.446Z,9.60
2019-05-15T17:24:09.501Z,9.70
2019-05-15T17:26:43.501Z,9.60
2019-05-15T17:29:24.677Z,9.60
2019-05-15T17:32:01.215Z,9.60
2019-05-15T17:34:31.030Z,9.60
2019-05-15T17:37:04.263Z,9.60
2019-05-15T17:39:40.844Z,9.60
2019-05-15T17:42:05.587Z,9.60
2019-05-15T17:44:37.777Z,9.60
2019-05-15T17:47:10.824Z,9.60
2019-05-15T17:50:18.886Z,9.60
2019-05-15T17:52:49.143Z,9.50
2019-05-15T17:56:07.226Z,9.50
2019-05-15T17:58:38.154Z,9.50
2019-05-15T18:01:09.251Z,9.50
2019-05-15T18:03:39.409Z,9.50
2019-05-15T18:06:09.158Z,9.50
2019-05-15T18:08:39.199Z,9.50
2019-05-15T18:11:12.050Z,9.50
2019-05-15T18:13:41.899Z,9.50
2019-05-15T18:16:14.006Z,9.50
2019-05-15T18:18:43.805Z,9.50
2019-05-15T18:21:18.395Z,9.50
2019-05-15T18:24:09.244Z,9.50
2019-05-15T18:26:41.167Z,9.50
2019-05-15T18:29:10.847Z,9.50
2019-05-15T18:31:59.547Z,9.50
2019-05-15T18:34:29.177Z,9.50
2019-05-15T18:36:58.868Z,9.40
2019-05-15T18:39:29.193Z,9.50
2019-05-15T18:41:59.078Z,9.40
2019-05-15T18:44:48.293Z,9.40
2019-05-15T18:47:18.798Z,9.40
2019-05-15T18:50:03.750Z,9.40
2019-05-15T18:52:28.563Z,9.30
2019-05-15T18:54:55.516Z,9.40
2019-05-15T18:57:25.264Z,9.30
2019-05-15T18:59:54.903Z,9.30
2019-05-15T19:02:24.984Z,9.40
2019-05-15T19:04:58.532Z,9.30
2019-05-15T19:07:39.705Z,9.30
2019-05-15T19:10:14.364Z,9.40
2019-05-15T19:12:54.548Z,9.40
2019-05-15T19:15:28.614Z,9.40
2019-05-15T19:18:01.218Z,9.50
2019-05-15T19:20:33.637Z,9.50
2019-05-15T19:23:03.387Z,9.50
2019-05-15T19:25:36.351Z,9.50
2019-05-15T19:28:08.476Z,9.60
2019-05-15T19:30:40.671Z,9.60
2019-05-15T19:33:37.063Z,9.60
2019-05-15T19:36:02.291Z,9.60
2019-05-15T19:38:37.638Z,9.60
2019-05-15T19:41:09.699Z,9.70
2019-05-15T19:43:42.452Z,9.70
2019-05-15T19:46:12.231Z,9.70
2019-05-15T19:48:42.350Z,9.80
2019-05-15T19:51:12.217Z,9.80
2019-05-15T19:53:43.574Z,9.80
2019-05-15T19:56:15.869Z,9.90
2019-05-15T19:58:47.985Z,10.00
2019-05-15T20:01:20.820Z,10.00
2019-05-15T20:03:53.227Z,10.00
2019-05-15T20:06:23.330Z,10.00
2019-05-15T20:08:53.521Z,10.00
2019-05-15T20:11:27.888Z,10.00
2019-05-15T20:13:58.307Z,10.00
2019-05-15T20:16:29.696Z,10.00
2019-05-15T20:18:59.507Z,10.00
2019-05-15T20:21:49.744Z,10.00
2019-05-15T20:24:19.835Z,10.00
2019-05-15T20:26:49.551Z,10.00
2019-05-15T20:29:19.257Z,10.00
2019-05-15T20:31:49.169Z,10.00
2019-05-15T20:34:21.948Z,10.10
2019-05-15T20:36:51.647Z,10.10
2019-05-15T20:39:21.429Z,10.10
2019-05-15T20:41:51.206Z,10.10
2019-05-15T20:44:20.890Z,10.20
2019-05-15T20:46:51.082Z,10.10
2019-05-15T20:49:20.839Z,10.20
2019-05-15T20:51:50.645Z,10.20
2019-05-15T20:54:20.319Z,10.30
2019-05-15T20:56:50.069Z,10.30
2019-05-15T20:59:19.775Z,10.30
2019-05-15T21:01:50.898Z,10.30
2019-05-15T21:04:23.278Z,10.40
2019-05-15T21:06:52.106Z,10.40
2019-05-15T21:09:21.994Z,10.40
2019-05-15T21:11:51.685Z,10.40
2019-05-15T21:14:21.362Z,10.40
2019-05-15T21:16:51.000Z,10.40
2019-05-15T21:19:20.733Z,10.50
2019-05-15T21:21:50.371Z,10.40
2019-05-15T21:24:20.086Z,10.50
2019-05-15T21:26:49.769Z,10.50
2019-05-15T21:29:19.480Z,10.50
2019-05-15T21:31:49.235Z,10.50
2019-05-15T21:34:33.400Z,10.50
2019-05-15T21:36:52.114Z,10.50
2019-05-15T21:39:22.977Z,10.50
2019-05-15T21:41:52.691Z,10.50
2019-05-15T21:44:22.356Z,10.50
2019-05-15T21:46:52.031Z,10.50
2019-05-15T21:49:21.756Z,10.60
2019-05-15T21:51:51.458Z,10.60
2019-05-15T21:54:21.688Z,10.60
2019-05-15T21:56:51.434Z,10.60
2019-05-15T21:59:21.104Z,10.60
2019-05-15T22:01:50.805Z,10.70
2019-05-15T22:04:20.476Z,10.70
2019-05-15T22:06:53.370Z,10.70
2019-05-15T22:09:23.470Z,10.70
2019-05-15T22:11:57.196Z,10.70
2019-05-15T22:14:24.512Z,10.80
2019-05-15T22:16:54.144Z,10.80
2019-05-15T22:19:23.873Z,10.80
2019-05-15T22:21:53.552Z,10.80
2019-05-15T22:24:23.359Z,10.80
2019-05-15T22:27:12.272Z,10.90
2019-05-15T22:29:43.038Z,10.90
2019-05-15T22:32:31.714Z,11.00
2019-05-15T22:35:09.736Z,11.00
2019-05-15T22:37:52.455Z,11.00
2019-05-15T22:40:41.236Z,11.10
2019-05-15T22:43:11.004Z,11.10
2019-05-15T22:45:40.634Z,11.10
2019-05-15T22:48:10.380Z,11.10
2019-05-15T22:50:40.055Z,11.20
2019-05-15T22:53:11.101Z,11.20
2019-05-15T22:55:43.069Z,11.20
2019-05-15T22:58:13.049Z,11.20
2019-05-15T23:00:42.916Z,11.20
2019-05-15T23:03:12.529Z,11.30
2019-05-15T23:05:42.252Z,11.30
2019-05-15T23:08:11.876Z,11.30
2019-05-15T23:10:41.526Z,11.30
2019-05-15T23:13:12.865Z,11.30
2019-05-15T23:15:42.483Z,11.40
2019-05-15T23:18:13.358Z,11.40
2019-05-15T23:20:43.014Z,11.40
2019-05-15T23:23:14.600Z,11.40
2019-05-15T23:25:44.212Z,11.40
2019-05-15T23:28:13.939Z,11.40
2019-05-15T23:30:43.650Z,11.40
2019-05-15T23:33:13.285Z,11.40
2019-05-15T23:35:42.883Z,11.40
2019-05-15T23:38:12.526Z,11.50
2019-05-15T23:40:42.156Z,11.50
2019-05-15T23:43:11.983Z,11.50
2019-05-15T23:46:00.602Z,11.50
2019-05-15T23:48:30.292Z,11.60
2019-05-15T23:50:59.893Z,11.60
2019-05-15T23:53:29.536Z,11.60
2019-05-15T23:56:01.504Z,11.60
2019-05-15T23:58:31.172Z,11.60
